sensor_id;sensor_type;location;lat;lon;timestamp;P1;durP1;ratioP1;P2;durP2;ratioP2
10277;SDS011;5184;51.376;7.148;2023-06-01T00:01:14;6.07;;;3.33;;
10277;SDS011;5184;51.376;7.148;2023-06-01T00:03:41;4.37;;;3.20;;
10277;SDS011;5184;51.376;7.148;2023-06-01T00:06:07;5.60;;;3.43;;
10277;SDS011;5184;51.376;7.148;2023-06-01T00:08:34;4.20;;;3.70;;
10277;SDS011;5184;51.376;7.148;2023-06-01T00:11:01;4.60;;;3.10;;
10277;SDS011;5184;51.376;7.148;2023-06-01T00:13:29;5.43;;;3.40;;
10277;SDS011;5184;51.376;7.148;2023-06-01T00:15:56;6.17;;;3.40;;
10277;SDS011;5184;51.376;7.148;2023-06-01T00:18:22;4.33;;;3.67;;
10277;SDS011;5184;51.376;7.148;2023-06-01T00:20:49;7.53;;;4.13;;
10277;SDS011;5184;51.376;7.148;2023-06-01T00:23:15;6.90;;;3.73;;
10277;SDS011;5184;51.376;7.148;2023-06-01T00:25:42;6.57;;;4.03;;
10277;SDS011;5184;51.376;7.148;2023-06-01T00:28:09;6.80;;;4.20;;
10277;SDS011;5184;51.376;7.148;2023-06-01T00:30:36;5.97;;;3.93;;
10277;SDS011;5184;51.376;7.148;2023-06-01T00:33:03;8.63;;;4.40;;
10277;SDS011;5184;51.376;7.148;2023-06-01T00:35:30;8.17;;;4.10;;
10277;SDS011;5184;51.376;7.148;2023-06-01T00:37:56;7.73;;;4.00;;
10277;SDS011;5184;51.376;7.148;2023-06-01T00:40:23;8.33;;;4.10;;
10277;SDS011;5184;51.376;7.148;2023-06-01T00:42:49;8.40;;;4.00;;
10277;SDS011;5184;51.376;7.148;2023-06-01T00:45:16;6.83;;;4.57;;
10277;SDS011;5184;51.376;7.148;2023-06-01T00:47:43;8.13;;;4.90;;
10277;SDS011;5184;51.376;7.148;2023-06-01T00:50:10;7.37;;;4.47;;
10277;SDS011;5184;51.376;7.148;2023-06-01T00:52:37;7.87;;;5.00;;
10277;SDS011;5184;51.376;7.148;2023-06-01T00:55:05;5.90;;;4.60;;
10277;SDS011;5184;51.376;7.148;2023-06-01T00:57:32;7.90;;;4.70;;
10277;SDS011;5184;51.376;7.148;2023-06-01T00:59:58;7.43;;;4.50;;
10277;SDS011;5184;51.376;7.148;2023-06-01T01:02:25;6.87;;;4.77;;
10277;SDS011;5184;51.376;7.148;2023-06-01T01:04:51;9.43;;;4.93;;
10277;SDS011;5184;51.376;7.148;2023-06-01T01:07:27;7.67;;;5.17;;
10277;SDS011;5184;51.376;7.148;2023-06-01T01:09:49;9.67;;;5.17;;
10277;SDS011;5184;51.376;7.148;2023-06-01T01:12:19;10.83;;;5.63;;
10277;SDS011;5184;51.376;7.148;2023-06-01T01:14:50;7.93;;;4.83;;
10277;SDS011;5184;51.376;7.148;2023-06-01T01:17:18;8.37;;;5.30;;
10277;SDS011;5184;51.376;7.148;2023-06-01T01:19:50;8.17;;;5.60;;
10277;SDS011;5184;51.376;7.148;2023-06-01T01:22:16;7.63;;;5.43;;
10277;SDS011;5184;51.376;7.148;2023-06-01T01:24:43;7.10;;;5.27;;
10277;SDS011;5184;51.376;7.148;2023-06-01T01:27:13;6.90;;;4.80;;
10277;SDS011;5184;51.376;7.148;2023-06-01T01:29:36;6.77;;;5.00;;
10277;SDS011;5184;51.376;7.148;2023-06-01T01:32:03;9.27;;;5.90;;
10277;SDS011;5184;51.376;7.148;2023-06-01T01:34:30;6.57;;;4.80;;
10277;SDS011;5184;51.376;7.148;2023-06-01T01:36:57;8.07;;;6.33;;
10277;SDS011;5184;51.376;7.148;2023-06-01T01:39:23;9.47;;;6.07;;
10277;SDS011;5184;51.376;7.148;2023-06-01T01:41:50;9.30;;;5.93;;
10277;SDS011;5184;51.376;7.148;2023-06-01T01:44:16;8.77;;;6.37;;
10277;SDS011;5184;51.376;7.148;2023-06-01T01:46:51;9.10;;;6.03;;
10277;SDS011;5184;51.376;7.148;2023-06-01T01:49:20;9.53;;;6.23;;
10277;SDS011;5184;51.376;7.148;2023-06-01T01:51:50;10.70;;;6.73;;
10277;SDS011;5184;51.376;7.148;2023-06-01T01:54:36;10.07;;;6.07;;
10277;SDS011;5184;51.376;7.148;2023-06-01T01:57:01;7.63;;;6.00;;
10277;SDS011;5184;51.376;7.148;2023-06-01T01:59:28;8.37;;;6.50;;
10277;SDS011;5184;51.376;7.148;2023-06-01T02:01:55;14.03;;;6.43;;
10277;SDS011;5184;51.376;7.148;2023-06-01T02:04:22;11.43;;;6.17;;
10277;SDS011;5184;51.376;7.148;2023-06-01T02:06:48;9.40;;;6.50;;
10277;SDS011;5184;51.376;7.148;2023-06-01T02:09:15;10.63;;;6.90;;
10277;SDS011;5184;51.376;7.148;2023-06-01T02:11:42;10.70;;;6.90;;
10277;SDS011;5184;51.376;7.148;2023-06-01T02:14:08;11.17;;;6.83;;
10277;SDS011;5184;51.376;7.148;2023-06-01T02:16:36;9.90;;;7.30;;
10277;SDS011;5184;51.376;7.148;2023-06-01T02:19:03;9.67;;;6.60;;
10277;SDS011;5184;51.376;7.148;2023-06-01T02:21:30;12.23;;;7.10;;
10277;SDS011;5184;51.376;7.148;2023-06-01T02:23:56;13.23;;;6.97;;
10277;SDS011;5184;51.376;7.148;2023-06-01T02:26:23;10.40;;;7.33;;
10277;SDS011;5184;51.376;7.148;2023-06-01T02:28:49;12.77;;;8.33;;
10277;SDS011;5184;51.376;7.148;2023-06-01T02:31:16;11.90;;;8.30;;
10277;SDS011;5184;51.376;7.148;2023-06-01T02:33:43;12.43;;;8.37;;
10277;SDS011;5184;51.376;7.148;2023-06-01T02:36:10;10.53;;;8.60;;
10277;SDS011;5184;51.376;7.148;2023-06-01T02:38:37;12.87;;;8.13;;
10277;SDS011;5184;51.376;7.148;2023-06-01T02:41:03;12.57;;;8.60;;
10277;SDS011;5184;51.376;7.148;2023-06-01T02:43:33;13.50;;;9.37;;
10277;SDS011;5184;51.376;7.148;2023-06-01T02:45:58;14.47;;;8.70;;
10277;SDS011;5184;51.376;7.148;2023-06-01T02:48:24;16.90;;;9.67;;
10277;SDS011;5184;51.376;7.148;2023-06-01T02:50:51;15.43;;;10.90;;
10277;SDS011;5184;51.376;7.148;2023-06-01T02:53:18;14.13;;;10.30;;
10277;SDS011;5184;51.376;7.148;2023-06-01T02:55:45;15.97;;;11.33;;
10277;SDS011;5184;51.376;7.148;2023-06-01T02:58:12;17.43;;;11.47;;
10277;SDS011;5184;51.376;7.148;2023-06-01T03:00:42;16.90;;;11.00;;
10277;SDS011;5184;51.376;7.148;2023-06-01T03:03:08;15.70;;;11.03;;
10277;SDS011;5184;51.376;7.148;2023-06-01T03:05:35;16.03;;;12.00;;
10277;SDS011;5184;51.376;7.148;2023-06-01T03:08:02;18.10;;;11.50;;
10277;SDS011;5184;51.376;7.148;2023-06-01T03:10:28;22.33;;;12.80;;
10277;SDS011;5184;51.376;7.148;2023-06-01T03:12:55;20.33;;;12.67;;
10277;SDS011;5184;51.376;7.148;2023-06-01T03:15:22;18.17;;;11.97;;
10277;SDS011;5184;51.376;7.148;2023-06-01T03:17:49;18.93;;;11.87;;
10277;SDS011;5184;51.376;7.148;2023-06-01T03:20:16;18.57;;;12.23;;
10277;SDS011;5184;51.376;7.148;2023-06-01T03:22:44;19.63;;;12.80;;
10277;SDS011;5184;51.376;7.148;2023-06-01T03:25:10;18.60;;;12.87;;
10277;SDS011;5184;51.376;7.148;2023-06-01T03:27:37;19.77;;;12.83;;
10277;SDS011;5184;51.376;7.148;2023-06-01T03:30:03;21.53;;;13.97;;
10277;SDS011;5184;51.376;7.148;2023-06-01T03:32:30;21.60;;;15.33;;
10277;SDS011;5184;51.376;7.148;2023-06-01T03:34:57;30.63;;;21.20;;
10277;SDS011;5184;51.376;7.148;2023-06-01T03:37:23;25.53;;;19.20;;
10277;SDS011;5184;51.376;7.148;2023-06-01T03:39:50;23.23;;;16.47;;
10277;SDS011;5184;51.376;7.148;2023-06-01T03:42:17;28.60;;;17.03;;
10277;SDS011;5184;51.376;7.148;2023-06-01T03:44:44;23.13;;;15.53;;
10277;SDS011;5184;51.376;7.148;2023-06-01T03:47:11;22.23;;;15.53;;
10277;SDS011;5184;51.376;7.148;2023-06-01T03:49:38;23.47;;;16.30;;
10277;SDS011;5184;51.376;7.148;2023-06-01T03:52:06;24.17;;;16.23;;
10277;SDS011;5184;51.376;7.148;2023-06-01T03:54:32;25.10;;;16.80;;
10277;SDS011;5184;51.376;7.148;2023-06-01T03:57:00;25.97;;;15.90;;
10277;SDS011;5184;51.376;7.148;2023-06-01T03:59:27;24.53;;;17.17;;
10277;SDS011;5184;51.376;7.148;2023-06-01T04:01:54;25.20;;;16.57;;
10277;SDS011;5184;51.376;7.148;2023-06-01T04:04:21;25.77;;;16.33;;
10277;SDS011;5184;51.376;7.148;2023-06-01T04:06:47;22.83;;;16.73;;
10277;SDS011;5184;51.376;7.148;2023-06-01T04:09:14;26.30;;;16.30;;
10277;SDS011;5184;51.376;7.148;2023-06-01T04:11:41;27.50;;;17.20;;
10277;SDS011;5184;51.376;7.148;2023-06-01T04:14:07;27.10;;;17.00;;
10277;SDS011;5184;51.376;7.148;2023-06-01T04:16:34;23.90;;;17.00;;
10277;SDS011;5184;51.376;7.148;2023-06-01T04:19:01;30.40;;;18.70;;
10277;SDS011;5184;51.376;7.148;2023-06-01T04:21:29;27.50;;;17.70;;
10277;SDS011;5184;51.376;7.148;2023-06-01T04:23:55;28.90;;;17.67;;
10277;SDS011;5184;51.376;7.148;2023-06-01T04:26:22;26.10;;;18.63;;
10277;SDS011;5184;51.376;7.148;2023-06-01T04:28:48;25.53;;;17.73;;
10277;SDS011;5184;51.376;7.148;2023-06-01T04:31:16;29.53;;;18.03;;
10277;SDS011;5184;51.376;7.148;2023-06-01T04:33:44;29.17;;;18.30;;
10277;SDS011;5184;51.376;7.148;2023-06-01T04:36:12;27.73;;;17.80;;
10277;SDS011;5184;51.376;7.148;2023-06-01T04:38:40;29.03;;;18.73;;
10277;SDS011;5184;51.376;7.148;2023-06-01T04:41:07;29.93;;;18.37;;
10277;SDS011;5184;51.376;7.148;2023-06-01T04:43:34;27.33;;;19.00;;
10277;SDS011;5184;51.376;7.148;2023-06-01T04:46:01;29.17;;;18.43;;
10277;SDS011;5184;51.376;7.148;2023-06-01T04:48:28;27.37;;;17.73;;
10277;SDS011;5184;51.376;7.148;2023-06-01T04:50:54;24.97;;;17.13;;
10277;SDS011;5184;51.376;7.148;2023-06-01T04:53:21;29.40;;;19.03;;
10277;SDS011;5184;51.376;7.148;2023-06-01T04:55:48;28.00;;;18.87;;
10277;SDS011;5184;51.376;7.148;2023-06-01T04:58:16;29.40;;;18.50;;
10277;SDS011;5184;51.376;7.148;2023-06-01T05:00:43;33.03;;;20.93;;
10277;SDS011;5184;51.376;7.148;2023-06-01T05:03:10;37.93;;;22.47;;
10277;SDS011;5184;51.376;7.148;2023-06-01T05:05:36;39.83;;;25.67;;
10277;SDS011;5184;51.376;7.148;2023-06-01T05:08:03;39.80;;;26.57;;
10277;SDS011;5184;51.376;7.148;2023-06-01T05:10:30;43.00;;;27.00;;
10277;SDS011;5184;51.376;7.148;2023-06-01T05:12:57;43.17;;;27.07;;
10277;SDS011;5184;51.376;7.148;2023-06-01T05:15:24;40.77;;;26.87;;
10277;SDS011;5184;51.376;7.148;2023-06-01T05:17:51;43.43;;;27.57;;
10277;SDS011;5184;51.376;7.148;2023-06-01T05:20:17;45.50;;;27.27;;
10277;SDS011;5184;51.376;7.148;2023-06-01T05:22:45;42.77;;;24.23;;
10277;SDS011;5184;51.376;7.148;2023-06-01T05:25:12;39.83;;;25.10;;
10277;SDS011;5184;51.376;7.148;2023-06-01T05:27:39;39.27;;;25.13;;
10277;SDS011;5184;51.376;7.148;2023-06-01T05:30:06;38.70;;;25.30;;
10277;SDS011;5184;51.376;7.148;2023-06-01T05:32:33;36.70;;;23.43;;
10277;SDS011;5184;51.376;7.148;2023-06-01T05:35:00;38.53;;;25.50;;
10277;SDS011;5184;51.376;7.148;2023-06-01T05:37:28;35.37;;;23.70;;
10277;SDS011;5184;51.376;7.148;2023-06-01T05:39:55;38.30;;;24.20;;
10277;SDS011;5184;51.376;7.148;2023-06-01T05:42:22;35.63;;;23.57;;
10277;SDS011;5184;51.376;7.148;2023-06-01T05:44:48;36.53;;;24.43;;
10277;SDS011;5184;51.376;7.148;2023-06-01T05:47:15;34.47;;;23.67;;
10277;SDS011;5184;51.376;7.148;2023-06-01T05:49:42;33.47;;;22.57;;
10277;SDS011;5184;51.376;7.148;2023-06-01T05:52:10;35.43;;;22.53;;
10277;SDS011;5184;51.376;7.148;2023-06-01T05:54:36;36.43;;;23.27;;
10277;SDS011;5184;51.376;7.148;2023-06-01T05:57:03;30.63;;;22.20;;
10277;SDS011;5184;51.376;7.148;2023-06-01T05:59:29;32.67;;;22.30;;
10277;SDS011;5184;51.376;7.148;2023-06-01T06:01:56;34.33;;;22.23;;
10277;SDS011;5184;51.376;7.148;2023-06-01T06:04:23;32.43;;;22.23;;
10277;SDS011;5184;51.376;7.148;2023-06-01T06:06:51;38.07;;;24.17;;
10277;SDS011;5184;51.376;7.148;2023-06-01T06:09:18;31.87;;;22.67;;
10277;SDS011;5184;51.376;7.148;2023-06-01T06:11:45;30.97;;;22.77;;
10277;SDS011;5184;51.376;7.148;2023-06-01T06:14:11;29.37;;;21.23;;
10277;SDS011;5184;51.376;7.148;2023-06-01T06:16:38;32.80;;;21.50;;
10277;SDS011;5184;51.376;7.148;2023-06-01T06:19:05;30.10;;;20.33;;
10277;SDS011;5184;51.376;7.148;2023-06-01T06:21:33;27.67;;;20.13;;
10277;SDS011;5184;51.376;7.148;2023-06-01T06:23:59;28.03;;;19.23;;
10277;SDS011;5184;51.376;7.148;2023-06-01T06:26:26;28.17;;;19.27;;
10277;SDS011;5184;51.376;7.148;2023-06-01T06:28:52;24.70;;;18.43;;
10277;SDS011;5184;51.376;7.148;2023-06-01T06:31:19;24.83;;;18.03;;
10277;SDS011;5184;51.376;7.148;2023-06-01T06:33:46;29.03;;;19.43;;
10277;SDS011;5184;51.376;7.148;2023-06-01T06:36:13;26.07;;;18.43;;
10277;SDS011;5184;51.376;7.148;2023-06-01T06:38:40;25.40;;;17.67;;
10277;SDS011;5184;51.376;7.148;2023-06-01T06:41:06;28.00;;;18.57;;
10277;SDS011;5184;51.376;7.148;2023-06-01T06:43:33;20.63;;;15.97;;
10277;SDS011;5184;51.376;7.148;2023-06-01T06:45:59;23.00;;;16.20;;
10277;SDS011;5184;51.376;7.148;2023-06-01T06:48:26;21.00;;;16.60;;
10277;SDS011;5184;51.376;7.148;2023-06-01T06:50:53;23.27;;;16.07;;
10277;SDS011;5184;51.376;7.148;2023-06-01T06:53:20;20.10;;;15.43;;
10277;SDS011;5184;51.376;7.148;2023-06-01T06:55:47;18.90;;;15.17;;
10277;SDS011;5184;51.376;7.148;2023-06-01T06:58:13;19.73;;;15.73;;
10277;SDS011;5184;51.376;7.148;2023-06-01T07:00:40;19.80;;;15.40;;
10277;SDS011;5184;51.376;7.148;2023-06-01T07:03:07;21.10;;;15.80;;
10277;SDS011;5184;51.376;7.148;2023-06-01T07:05:34;23.63;;;16.57;;
10277;SDS011;5184;51.376;7.148;2023-06-01T07:08:01;20.63;;;15.67;;
10277;SDS011;5184;51.376;7.148;2023-06-01T07:10:28;22.37;;;15.43;;
10277;SDS011;5184;51.376;7.148;2023-06-01T07:12:54;18.77;;;15.00;;
10277;SDS011;5184;51.376;7.148;2023-06-01T07:15:21;19.33;;;15.20;;
10277;SDS011;5184;51.376;7.148;2023-06-01T07:17:48;21.07;;;14.83;;
10277;SDS011;5184;51.376;7.148;2023-06-01T07:20:15;19.33;;;14.17;;
10277;SDS011;5184;51.376;7.148;2023-06-01T07:22:42;19.87;;;14.00;;
10277;SDS011;5184;51.376;7.148;2023-06-01T07:25:10;18.73;;;13.83;;
10277;SDS011;5184;51.376;7.148;2023-06-01T07:27:36;17.00;;;13.17;;
10277;SDS011;5184;51.376;7.148;2023-06-01T07:30:03;17.87;;;13.00;;
10277;SDS011;5184;51.376;7.148;2023-06-01T07:32:31;16.43;;;12.40;;
10277;SDS011;5184;51.376;7.148;2023-06-01T07:34:58;18.20;;;13.27;;
10277;SDS011;5184;51.376;7.148;2023-06-01T07:37:25;14.80;;;12.17;;
10277;SDS011;5184;51.376;7.148;2023-06-01T07:39:52;16.03;;;12.73;;
10277;SDS011;5184;51.376;7.148;2023-06-01T07:42:18;14.93;;;12.73;;
10277;SDS011;5184;51.376;7.148;2023-06-01T07:44:46;21.10;;;13.53;;
10277;SDS011;5184;51.376;7.148;2023-06-01T07:47:12;14.00;;;12.20;;
10277;SDS011;5184;51.376;7.148;2023-06-01T07:49:39;17.13;;;13.13;;
10277;SDS011;5184;51.376;7.148;2023-06-01T07:52:05;18.30;;;13.83;;
10277;SDS011;5184;51.376;7.148;2023-06-01T07:54:33;15.50;;;12.40;;
10277;SDS011;5184;51.376;7.148;2023-06-01T07:57:00;16.43;;;12.83;;
10277;SDS011;5184;51.376;7.148;2023-06-01T07:59:27;15.60;;;12.10;;
10277;SDS011;5184;51.376;7.148;2023-06-01T08:01:53;17.00;;;13.17;;
10277;SDS011;5184;51.376;7.148;2023-06-01T08:04:20;18.63;;;13.23;;
10277;SDS011;5184;51.376;7.148;2023-06-01T08:06:47;18.70;;;13.17;;
10277;SDS011;5184;51.376;7.148;2023-06-01T08:09:14;15.00;;;12.70;;
10277;SDS011;5184;51.376;7.148;2023-06-01T08:11:40;16.97;;;12.93;;
10277;SDS011;5184;51.376;7.148;2023-06-01T08:14:07;16.80;;;12.53;;
10277;SDS011;5184;51.376;7.148;2023-06-01T08:16:34;18.10;;;13.80;;
10277;SDS011;5184;51.376;7.148;2023-06-01T08:19:01;19.10;;;13.90;;
10277;SDS011;5184;51.376;7.148;2023-06-01T08:21:28;17.47;;;13.43;;
10277;SDS011;5184;51.376;7.148;2023-06-01T08:23:54;20.63;;;14.00;;
10277;SDS011;5184;51.376;7.148;2023-06-01T08:26:21;15.63;;;12.63;;
10277;SDS011;5184;51.376;7.148;2023-06-01T08:28:47;17.67;;;13.73;;
10277;SDS011;5184;51.376;7.148;2023-06-01T08:31:14;15.70;;;12.90;;
10277;SDS011;5184;51.376;7.148;2023-06-01T08:33:41;16.57;;;13.23;;
10277;SDS011;5184;51.376;7.148;2023-06-01T08:36:07;17.70;;;12.70;;
10277;SDS011;5184;51.376;7.148;2023-06-01T08:38:35;16.60;;;13.00;;
10277;SDS011;5184;51.376;7.148;2023-06-01T08:41:04;14.00;;;11.93;;
10277;SDS011;5184;51.376;7.148;2023-06-01T08:43:30;16.40;;;11.77;;
10277;SDS011;5184;51.376;7.148;2023-06-01T08:45:57;15.00;;;11.27;;
10277;SDS011;5184;51.376;7.148;2023-06-01T08:48:24;17.03;;;12.23;;
10277;SDS011;5184;51.376;7.148;2023-06-01T08:50:50;14.10;;;11.77;;
10277;SDS011;5184;51.376;7.148;2023-06-01T08:53:17;14.60;;;12.30;;
10277;SDS011;5184;51.376;7.148;2023-06-01T08:55:45;15.07;;;11.93;;
10277;SDS011;5184;51.376;7.148;2023-06-01T08:58:12;16.07;;;12.10;;
10277;SDS011;5184;51.376;7.148;2023-06-01T09:00:38;15.43;;;11.17;;
10277;SDS011;5184;51.376;7.148;2023-06-01T09:03:04;16.07;;;12.50;;
10277;SDS011;5184;51.376;7.148;2023-06-01T09:05:32;17.73;;;12.30;;
10277;SDS011;5184;51.376;7.148;2023-06-01T09:07:59;16.80;;;12.10;;
10277;SDS011;5184;51.376;7.148;2023-06-01T09:10:26;19.07;;;12.27;;
10277;SDS011;5184;51.376;7.148;2023-06-01T09:12:53;18.37;;;12.70;;
10277;SDS011;5184;51.376;7.148;2023-06-01T09:15:20;15.93;;;12.60;;
10277;SDS011;5184;51.376;7.148;2023-06-01T09:17:47;15.87;;;11.87;;
10277;SDS011;5184;51.376;7.148;2023-06-01T09:20:14;14.70;;;11.80;;
10277;SDS011;5184;51.376;7.148;2023-06-01T09:22:42;18.87;;;11.97;;
10277;SDS011;5184;51.376;7.148;2023-06-01T09:25:08;16.77;;;12.53;;
10277;SDS011;5184;51.376;7.148;2023-06-01T09:27:45;15.93;;;11.70;;
10277;SDS011;5184;51.376;7.148;2023-06-01T09:30:11;14.20;;;12.27;;
10277;SDS011;5184;51.376;7.148;2023-06-01T09:32:38;15.63;;;12.23;;
10277;SDS011;5184;51.376;7.148;2023-06-01T09:35:04;16.23;;;11.80;;
10277;SDS011;5184;51.376;7.148;2023-06-01T09:37:32;15.97;;;11.30;;
10277;SDS011;5184;51.376;7.148;2023-06-01T09:39:59;16.53;;;12.33;;
10277;SDS011;5184;51.376;7.148;2023-06-01T09:42:31;17.77;;;12.83;;
10277;SDS011;5184;51.376;7.148;2023-06-01T09:45:13;18.20;;;13.50;;
10277;SDS011;5184;51.376;7.148;2023-06-01T09:47:23;16.73;;;12.63;;
10277;SDS011;5184;51.376;7.148;2023-06-01T09:49:51;14.90;;;11.00;;
10277;SDS011;5184;51.376;7.148;2023-06-01T09:52:17;14.47;;;12.53;;
10277;SDS011;5184;51.376;7.148;2023-06-01T09:54:44;14.83;;;11.67;;
10277;SDS011;5184;51.376;7.148;2023-06-01T09:57:12;13.70;;;11.30;;
10277;SDS011;5184;51.376;7.148;2023-06-01T09:59:40;16.73;;;12.57;;
10277;SDS011;5184;51.376;7.148;2023-06-01T10:02:05;17.33;;;11.63;;
10277;SDS011;5184;51.376;7.148;2023-06-01T10:04:32;22.07;;;12.20;;
10277;SDS011;5184;51.376;7.148;2023-06-01T10:06:59;16.97;;;11.67;;
10277;SDS011;5184;51.376;7.148;2023-06-01T10:09:27;16.97;;;10.97;;
10277;SDS011;5184;51.376;7.148;2023-06-01T10:11:54;13.73;;;10.87;;
10277;SDS011;5184;51.376;7.148;2023-06-01T10:14:22;17.47;;;12.27;;
10277;SDS011;5184;51.376;7.148;2023-06-01T10:16:49;15.93;;;11.97;;
10277;SDS011;5184;51.376;7.148;2023-06-01T10:19:15;15.10;;;11.60;;
10277;SDS011;5184;51.376;7.148;2023-06-01T10:21:42;14.93;;;11.23;;
10277;SDS011;5184;51.376;7.148;2023-06-01T10:24:08;15.17;;;11.47;;
10277;SDS011;5184;51.376;7.148;2023-06-01T10:26:39;14.67;;;11.20;;
10277;SDS011;5184;51.376;7.148;2023-06-01T10:29:03;17.53;;;12.00;;
10277;SDS011;5184;51.376;7.148;2023-06-01T10:31:32;15.53;;;11.53;;
10277;SDS011;5184;51.376;7.148;2023-06-01T10:34:07;14.20;;;11.77;;
10277;SDS011;5184;51.376;7.148;2023-06-01T10:39:27;17.03;;;11.67;;
10277;SDS011;5184;51.376;7.148;2023-06-01T10:41:53;15.37;;;11.97;;
10277;SDS011;5184;51.376;7.148;2023-06-01T10:46:59;15.27;;;11.17;;
10277;SDS011;5184;51.376;7.148;2023-06-01T10:49:45;16.67;;;12.30;;
10277;SDS011;5184;51.376;7.148;2023-06-01T10:52:23;14.73;;;11.20;;
10277;SDS011;5184;51.376;7.148;2023-06-01T10:54:24;11.53;;;9.13;;
10277;SDS011;5184;51.376;7.148;2023-06-01T10:59:27;14.27;;;11.70;;
10277;SDS011;5184;51.376;7.148;2023-06-01T11:01:55;16.80;;;13.67;;
10277;SDS011;5184;51.376;7.148;2023-06-01T11:04:34;19.27;;;14.80;;
10277;SDS011;5184;51.376;7.148;2023-06-01T11:06:49;19.47;;;13.93;;
10277;SDS011;5184;51.376;7.148;2023-06-01T11:09:15;18.73;;;14.50;;
10277;SDS011;5184;51.376;7.148;2023-06-01T11:14:30;18.53;;;14.40;;
10277;SDS011;5184;51.376;7.148;2023-06-01T11:17:25;20.30;;;14.33;;
10277;SDS011;5184;51.376;7.148;2023-06-01T11:19:24;19.70;;;14.47;;
10277;SDS011;5184;51.376;7.148;2023-06-01T11:21:55;18.90;;;15.10;;
10277;SDS011;5184;51.376;7.148;2023-06-01T11:24:21;19.63;;;13.37;;
10277;SDS011;5184;51.376;7.148;2023-06-01T11:26:48;19.63;;;14.40;;
10277;SDS011;5184;51.376;7.148;2023-06-01T11:29:17;21.53;;;15.17;;
10277;SDS011;5184;51.376;7.148;2023-06-01T11:31:44;16.77;;;14.97;;
10277;SDS011;5184;51.376;7.148;2023-06-01T11:34:31;22.17;;;16.20;;
10277;SDS011;5184;51.376;7.148;2023-06-01T11:37:03;17.73;;;14.07;;
10277;SDS011;5184;51.376;7.148;2023-06-01T11:39:30;23.57;;;15.73;;
10277;SDS011;5184;51.376;7.148;2023-06-01T11:44:33;20.83;;;16.53;;
10277;SDS011;5184;51.376;7.148;2023-06-01T11:46:59;20.17;;;15.60;;
10277;SDS011;5184;51.376;7.148;2023-06-01T11:49:26;21.10;;;15.47;;
10277;SDS011;5184;51.376;7.148;2023-06-01T11:51:53;22.77;;;16.73;;
10277;SDS011;5184;51.376;7.148;2023-06-01T11:54:21;22.37;;;16.47;;
10277;SDS011;5184;51.376;7.148;2023-06-01T11:56:48;21.47;;;16.67;;
10277;SDS011;5184;51.376;7.148;2023-06-01T11:59:15;21.07;;;15.80;;
10277;SDS011;5184;51.376;7.148;2023-06-01T12:01:42;19.47;;;15.90;;
10277;SDS011;5184;51.376;7.148;2023-06-01T12:04:14;19.70;;;15.63;;
10277;SDS011;5184;51.376;7.148;2023-06-01T12:06:42;20.20;;;16.07;;
10277;SDS011;5184;51.376;7.148;2023-06-01T12:09:09;20.60;;;16.43;;
10277;SDS011;5184;51.376;7.148;2023-06-01T12:11:36;22.57;;;17.53;;
10277;SDS011;5184;51.376;7.148;2023-06-01T12:14:03;20.83;;;17.23;;
10277;SDS011;5184;51.376;7.148;2023-06-01T12:19:18;21.27;;;17.50;;
10277;SDS011;5184;51.376;7.148;2023-06-01T12:21:50;18.87;;;15.00;;
10277;SDS011;5184;51.376;7.148;2023-06-01T12:24:18;17.40;;;14.60;;
10277;SDS011;5184;51.376;7.148;2023-06-01T12:26:43;17.03;;;13.33;;
10277;SDS011;5184;51.376;7.148;2023-06-01T12:29:10;17.73;;;13.20;;
10277;SDS011;5184;51.376;7.148;2023-06-01T12:31:37;17.43;;;13.20;;
10277;SDS011;5184;51.376;7.148;2023-06-01T12:34:03;18.20;;;12.80;;
10277;SDS011;5184;51.376;7.148;2023-06-01T12:36:32;21.87;;;14.53;;
10277;SDS011;5184;51.376;7.148;2023-06-01T12:38:58;17.97;;;14.13;;
10277;SDS011;5184;51.376;7.148;2023-06-01T12:41:25;17.23;;;12.40;;
10277;SDS011;5184;51.376;7.148;2023-06-01T12:43:51;15.27;;;12.23;;
10277;SDS011;5184;51.376;7.148;2023-06-01T12:46:20;15.83;;;12.87;;
10277;SDS011;5184;51.376;7.148;2023-06-01T12:48:47;16.00;;;12.97;;
10277;SDS011;5184;51.376;7.148;2023-06-01T12:51:14;19.00;;;13.23;;
10277;SDS011;5184;51.376;7.148;2023-06-01T12:53:41;16.13;;;12.53;;
10277;SDS011;5184;51.376;7.148;2023-06-01T12:56:08;16.00;;;12.90;;
10277;SDS011;5184;51.376;7.148;2023-06-01T12:58:36;16.40;;;12.83;;
10277;SDS011;5184;51.376;7.148;2023-06-01T13:01:02;15.47;;;12.57;;
10277;SDS011;5184;51.376;7.148;2023-06-01T13:03:29;16.17;;;11.83;;
10277;SDS011;5184;51.376;7.148;2023-06-01T13:05:55;16.00;;;11.70;;
10277;SDS011;5184;51.376;7.148;2023-06-01T13:08:22;13.87;;;11.87;;
10277;SDS011;5184;51.376;7.148;2023-06-01T13:10:49;17.10;;;11.73;;
10277;SDS011;5184;51.376;7.148;2023-06-01T13:13:17;14.70;;;10.10;;
10277;SDS011;5184;51.376;7.148;2023-06-01T13:15:44;14.60;;;10.47;;
10277;SDS011;5184;51.376;7.148;2023-06-01T13:18:11;12.90;;;10.17;;
10277;SDS011;5184;51.376;7.148;2023-06-01T13:20:37;15.13;;;10.73;;
10277;SDS011;5184;51.376;7.148;2023-06-01T13:23:04;10.73;;;9.50;;
10277;SDS011;5184;51.376;7.148;2023-06-01T13:25:32;13.57;;;10.70;;
10277;SDS011;5184;51.376;7.148;2023-06-01T13:28:00;14.93;;;10.40;;
10277;SDS011;5184;51.376;7.148;2023-06-01T13:30:28;11.10;;;8.33;;
10277;SDS011;5184;51.376;7.148;2023-06-01T13:32:55;13.50;;;9.07;;
10277;SDS011;5184;51.376;7.148;2023-06-01T13:35:22;12.23;;;9.27;;
10277;SDS011;5184;51.376;7.148;2023-06-01T13:37:48;12.87;;;9.30;;
10277;SDS011;5184;51.376;7.148;2023-06-01T13:40:15;12.23;;;7.93;;
10277;SDS011;5184;51.376;7.148;2023-06-01T13:42:45;10.10;;;8.53;;
10277;SDS011;5184;51.376;7.148;2023-06-01T13:45:12;12.07;;;8.90;;
10277;SDS011;5184;51.376;7.148;2023-06-01T13:47:39;11.57;;;7.80;;
10277;SDS011;5184;51.376;7.148;2023-06-01T13:50:05;10.40;;;7.87;;
10277;SDS011;5184;51.376;7.148;2023-06-01T13:52:32;10.97;;;7.93;;
10277;SDS011;5184;51.376;7.148;2023-06-01T13:54:59;11.83;;;7.73;;
10277;SDS011;5184;51.376;7.148;2023-06-01T13:57:25;9.07;;;7.40;;
10277;SDS011;5184;51.376;7.148;2023-06-01T13:59:52;9.83;;;8.00;;
10277;SDS011;5184;51.376;7.148;2023-06-01T14:02:18;13.37;;;8.10;;
10277;SDS011;5184;51.376;7.148;2023-06-01T14:04:46;9.20;;;6.97;;
10277;SDS011;5184;51.376;7.148;2023-06-01T14:07:13;12.07;;;7.53;;
10277;SDS011;5184;51.376;7.148;2023-06-01T14:09:40;10.87;;;7.17;;
10277;SDS011;5184;51.376;7.148;2023-06-01T14:12:07;8.80;;;6.73;;
10277;SDS011;5184;51.376;7.148;2023-06-01T14:14:34;11.77;;;7.70;;
10277;SDS011;5184;51.376;7.148;2023-06-01T14:17:01;9.97;;;7.27;;
10277;SDS011;5184;51.376;7.148;2023-06-01T14:19:27;9.83;;;6.97;;
10277;SDS011;5184;51.376;7.148;2023-06-01T14:21:54;10.53;;;8.00;;
10277;SDS011;5184;51.376;7.148;2023-06-01T14:24:21;9.03;;;6.57;;
10277;SDS011;5184;51.376;7.148;2023-06-01T14:26:48;7.97;;;6.37;;
10277;SDS011;5184;51.376;7.148;2023-06-01T14:29:14;9.43;;;7.53;;
10277;SDS011;5184;51.376;7.148;2023-06-01T14:31:41;8.77;;;5.80;;
10277;SDS011;5184;51.376;7.148;2023-06-01T14:34:07;10.60;;;7.27;;
10277;SDS011;5184;51.376;7.148;2023-06-01T14:36:34;10.30;;;7.53;;
10277;SDS011;5184;51.376;7.148;2023-06-01T14:39:01;9.43;;;6.90;;
10277;SDS011;5184;51.376;7.148;2023-06-01T14:41:28;8.27;;;6.90;;
10277;SDS011;5184;51.376;7.148;2023-06-01T14:43:55;10.03;;;7.30;;
10277;SDS011;5184;51.376;7.148;2023-06-01T14:46:21;9.53;;;6.70;;
10277;SDS011;5184;51.376;7.148;2023-06-01T14:48:48;7.30;;;6.53;;
10277;SDS011;5184;51.376;7.148;2023-06-01T14:51:14;9.00;;;7.87;;
10277;SDS011;5184;51.376;7.148;2023-06-01T14:53:42;8.70;;;7.00;;
10277;SDS011;5184;51.376;7.148;2023-06-01T14:56:09;10.90;;;7.07;;